createdAt,value
2023-01-25T00:01:31.455Z,1.45
2023-01-25T00:03:58.296Z,1.52
2023-01-25T00:06:24.590Z,1.46
2023-01-25T00:08:51.917Z,1.42
2023-01-25T00:11:19.744Z,1.51
2023-01-25T00:13:46.202Z,1.37
2023-01-25T00:16:12.792Z,1.45
2023-01-25T00:18:39.112Z,1.42
2023-01-25T00:21:12.784Z,1.54
2023-01-25T00:23:39.134Z,1.57
2023-01-25T00:26:05.442Z,1.46
2023-01-25T00:28:31.729Z,1.56
2023-01-25T00:31:02.534Z,1.72
2023-01-25T00:33:37.950Z,1.60
2023-01-25T00:36:39.619Z,1.55
2023-01-25T00:39:10.082Z,1.73
2023-01-25T00:41:36.459Z,1.50
2023-01-25T00:44:02.908Z,1.52
2023-01-25T00:46:29.279Z,1.41
2023-01-25T00:48:56.666Z,1.43
2023-01-25T00:51:24.362Z,1.40
2023-01-25T00:53:51.238Z,1.50
2023-01-25T00:56:17.675Z,1.46
2023-01-25T00:58:44.510Z,1.52
2023-01-25T01:01:12.590Z,1.67
2023-01-25T01:03:39.359Z,1.62
2023-01-25T01:06:09.963Z,1.66
2023-01-25T01:08:39.996Z,1.78
2023-01-25T01:11:08.917Z,1.77
2023-01-25T01:13:35.606Z,1.59
2023-01-25T01:16:04.886Z,1.53
2023-01-25T01:18:40.101Z,1.52
2023-01-25T01:21:07.991Z,1.48
2023-01-25T01:23:35.482Z,1.49
2023-01-25T01:26:03.590Z,1.54
2023-01-25T01:28:30.908Z,1.48
2023-01-25T01:31:04.956Z,1.52
2023-01-25T01:33:36.164Z,1.43
2023-01-25T01:36:16.430Z,1.47
2023-01-25T01:38:43.279Z,1.45
2023-01-25T01:41:10.860Z,1.45
2023-01-25T01:43:37.805Z,1.45
2023-01-25T01:46:20.555Z,1.47
2023-01-25T01:49:05.521Z,1.43
2023-01-25T01:51:44.563Z,1.52
2023-01-25T01:54:28.706Z,1.50
2023-01-25T01:57:02.209Z,1.60
2023-01-25T01:59:36.009Z,1.56
2023-01-25T02:02:02.971Z,1.47
2023-01-25T02:04:30.079Z,1.40
2023-01-25T02:07:14.895Z,1.32
2023-01-25T02:09:43.195Z,1.43
2023-01-25T02:12:12.795Z,1.47
2023-01-25T02:14:47.932Z,1.44
2023-01-25T02:17:29.615Z,1.49
2023-01-25T02:20:17.571Z,1.49
2023-01-25T02:23:00.146Z,1.48
2023-01-25T02:25:28.029Z,1.54
2023-01-25T02:28:29.360Z,1.62
2023-01-25T02:30:55.939Z,1.55
2023-01-25T02:33:25.002Z,1.55
2023-01-25T02:36:12.427Z,1.58
2023-01-25T02:38:42.222Z,1.52
2023-01-25T02:41:15.515Z,1.49
2023-01-25T02:43:42.574Z,1.45
2023-01-25T02:46:27.331Z,1.53
2023-01-25T02:48:55.465Z,1.39
2023-01-25T02:51:23.653Z,1.38
2023-01-25T02:53:50.222Z,1.55
2023-01-25T02:56:17.621Z,1.44
2023-01-25T02:58:44.712Z,1.45
2023-01-25T03:01:13.222Z,1.56
2023-01-25T03:03:40.631Z,1.35
2023-01-25T03:06:07.698Z,1.45
2023-01-25T03:08:34.793Z,1.38
2023-01-25T03:11:04.309Z,1.57
2023-01-25T03:13:31.966Z,1.53
2023-01-25T03:16:05.353Z,1.53
2023-01-25T03:18:32.659Z,1.51
2023-01-25T03:21:11.953Z,1.51
2023-01-25T03:23:39.292Z,1.46
2023-01-25T03:26:20.605Z,1.47
2023-01-25T03:29:22.443Z,1.53
2023-01-25T03:31:49.850Z,1.40
2023-01-25T03:34:16.263Z,1.36
2023-01-25T03:36:43.270Z,1.38
2023-01-25T03:39:09.994Z,1.33
2023-01-25T03:41:40.803Z,1.42
2023-01-25T03:44:12.839Z,1.46
2023-01-25T03:46:41.741Z,1.47
2023-01-25T03:49:08.935Z,1.55
2023-01-25T03:51:35.871Z,1.53
2023-01-25T03:54:03.193Z,1.45
2023-01-25T03:56:29.717Z,1.45
2023-01-25T03:59:08.335Z,1.40
2023-01-25T04:01:34.791Z,1.45
2023-01-25T04:04:02.378Z,1.51
2023-01-25T04:06:29.199Z,1.42
2023-01-25T04:08:55.999Z,1.46
2023-01-25T04:11:24.724Z,1.47
2023-01-25T04:13:51.117Z,1.26
2023-01-25T04:16:20.113Z,1.33
2023-01-25T04:19:16.215Z,1.35
2023-01-25T04:21:42.754Z,1.24
2023-01-25T04:24:09.396Z,1.29
2023-01-25T04:26:38.736Z,1.46
2023-01-25T04:29:05.790Z,1.41
2023-01-25T04:31:33.329Z,1.59
2023-01-25T04:34:00.348Z,1.54
2023-01-25T04:36:27.827Z,1.36
2023-01-25T04:38:55.737Z,1.38
2023-01-25T04:41:26.705Z,1.41
2023-01-25T04:43:53.807Z,1.36
2023-01-25T04:46:20.436Z,1.30
2023-01-25T04:48:46.800Z,1.15
2023-01-25T04:51:15.341Z,1.27
2023-01-25T04:53:41.910Z,1.40
2023-01-25T04:56:09.431Z,1.29
2023-01-25T04:58:44.699Z,1.28
2023-01-25T05:01:11.735Z,1.27
2023-01-25T05:03:38.261Z,1.25
2023-01-25T05:06:09.335Z,1.38
2023-01-25T05:08:35.784Z,1.30
2023-01-25T05:11:02.885Z,1.24
2023-01-25T05:13:54.778Z,1.23
2023-01-25T05:16:28.832Z,1.37
2023-01-25T05:18:56.066Z,1.23
2023-01-25T05:21:49.052Z,1.07
2023-01-25T05:24:15.483Z,1.12
2023-01-25T05:27:00.670Z,1.26
2023-01-25T05:29:38.514Z,1.23
2023-01-25T05:32:09.765Z,1.18
2023-01-25T05:34:37.059Z,1.39
2023-01-25T05:37:05.308Z,1.29
2023-01-25T05:39:32.827Z,1.51
2023-01-25T05:41:59.476Z,1.43
2023-01-25T05:44:25.879Z,1.14
2023-01-25T05:46:52.632Z,1.12
2023-01-25T05:49:19.593Z,1.24
2023-01-25T05:51:46.537Z,1.12
2023-01-25T05:54:16.174Z,1.22
2023-01-25T05:56:51.667Z,1.26
2023-01-25T05:59:18.333Z,1.31
2023-01-25T06:01:45.298Z,1.52
2023-01-25T06:04:15.362Z,1.47
2023-01-25T06:06:41.995Z,1.39
2023-01-25T06:09:10.972Z,1.33
2023-01-25T06:11:37.354Z,1.36
2023-01-25T06:14:04.037Z,1.36
2023-01-25T06:16:31.094Z,1.36
2023-01-25T06:19:16.174Z,1.21
2023-01-25T06:22:07.952Z,1.19
2023-01-25T06:24:34.309Z,1.17
2023-01-25T06:27:00.592Z,1.12
2023-01-25T06:29:26.883Z,1.07
2023-01-25T06:31:55.049Z,1.11
2023-01-25T06:34:22.600Z,1.06
2023-01-25T06:36:49.212Z,1.06
2023-01-25T06:39:15.550Z,1.10
2023-01-25T06:41:41.933Z,1.00
2023-01-25T06:44:09.145Z,0.93
2023-01-25T06:46:35.483Z,0.95
2023-01-25T06:49:01.889Z,0.89
2023-01-25T06:51:29.256Z,1.02
2023-01-25T06:53:55.605Z,0.94
2023-01-25T06:56:22.580Z,1.04
2023-01-25T06:58:49.534Z,0.93
2023-01-25T07:01:21.680Z,0.97
2023-01-25T07:03:49.757Z,1.18
2023-01-25T07:06:16.098Z,1.11
2023-01-25T07:08:42.408Z,1.00
2023-01-25T07:11:13.599Z,1.02
2023-01-25T07:13:40.997Z,1.09
2023-01-25T07:16:10.812Z,1.08
2023-01-25T07:18:37.519Z,1.09
2023-01-25T07:21:06.535Z,1.05
2023-01-25T07:23:34.397Z,0.97
2023-01-25T07:26:01.574Z,0.94
2023-01-25T07:28:28.337Z,0.90
2023-01-25T07:30:54.950Z,0.94
2023-01-25T07:33:21.270Z,0.97
2023-01-25T07:35:50.866Z,1.02
2023-01-25T07:38:17.622Z,0.99
2023-01-25T07:40:43.995Z,0.95
2023-01-25T07:43:10.688Z,1.05
2023-01-25T07:45:37.110Z,1.08
2023-01-25T07:48:10.165Z,1.09
2023-01-25T07:50:36.577Z,1.07
2023-01-25T07:53:02.945Z,0.91
2023-01-25T07:55:29.379Z,1.13
2023-01-25T07:57:55.743Z,0.93
2023-01-25T08:00:23.971Z,0.99
2023-01-25T08:02:51.779Z,0.88
2023-01-25T08:05:18.304Z,0.96
2023-01-25T08:07:46.114Z,1.07
2023-01-25T08:10:12.765Z,1.17
2023-01-25T08:12:39.097Z,0.97
2023-01-25T08:15:06.124Z,1.04
2023-01-25T08:17:33.111Z,0.97
2023-01-25T08:20:00.312Z,0.88
2023-01-25T08:22:26.923Z,0.89
2023-01-25T08:24:53.501Z,0.98
2023-01-25T08:27:20.481Z,1.00
2023-01-25T08:29:46.966Z,1.05
2023-01-25T08:32:13.402Z,0.92
2023-01-25T08:34:40.890Z,0.82
2023-01-25T08:37:07.202Z,0.78
2023-01-25T08:39:33.543Z,0.85
2023-01-25T08:42:00.097Z,0.88
2023-01-25T08:44:26.426Z,0.85
2023-01-25T08:46:52.809Z,0.94
2023-01-25T08:49:19.260Z,0.94
2023-01-25T08:51:47.200Z,0.91
2023-01-25T08:54:13.535Z,0.89
2023-01-25T08:56:41.344Z,0.86
2023-01-25T08:59:10.669Z,0.89
2023-01-25T09:01:37.002Z,0.81
2023-01-25T09:04:03.407Z,0.87
2023-01-25T09:06:29.946Z,0.88
2023-01-25T09:08:58.030Z,0.94
2023-01-25T09:11:24.457Z,0.93
2023-01-25T09:13:50.892Z,0.87
2023-01-25T09:16:22.633Z,0.98
2023-01-25T09:18:50.938Z,0.97
2023-01-25T09:21:18.605Z,0.98
2023-01-25T09:24:05.360Z,1.04
2023-01-25T09:26:34.375Z,0.91
2023-01-25T09:29:00.779Z,0.83
2023-01-25T09:31:30.098Z,0.81
2023-01-25T09:34:11.262Z,0.93
2023-01-25T09:36:39.291Z,0.89
2023-01-25T09:39:05.682Z,0.86
2023-01-25T09:41:42.317Z,0.83
2023-01-25T09:44:32.244Z,0.83
2023-01-25T09:47:24.061Z,0.77
2023-01-25T09:50:31.615Z,0.80
2023-01-25T09:53:25.781Z,1.02
2023-01-25T09:55:55.851Z,0.90
2023-01-25T09:58:29.562Z,0.99
2023-01-25T10:01:15.034Z,1.07
2023-01-25T10:03:53.515Z,1.06
2023-01-25T10:06:23.261Z,1.22
2023-01-25T10:08:58.687Z,0.95
2023-01-25T10:11:26.568Z,0.91
2023-01-25T10:13:55.967Z,0.91
2023-01-25T10:16:47.054Z,0.98
2023-01-25T10:19:42.886Z,0.98
2023-01-25T10:22:19.565Z,0.91
2023-01-25T10:25:31.074Z,0.99
2023-01-25T10:28:08.661Z,1.01
2023-01-25T10:31:00.098Z,1.07
2023-01-25T10:33:28.378Z,0.91
2023-01-25T10:35:55.701Z,0.93
2023-01-25T10:38:28.158Z,0.83
2023-01-25T10:41:34.018Z,0.97
2023-01-25T10:44:19.035Z,0.90
2023-01-25T10:46:51.878Z,0.98
2023-01-25T10:49:22.163Z,0.94
2023-01-25T10:51:48.516Z,0.87
2023-01-25T10:54:16.386Z,0.89
2023-01-25T10:56:45.310Z,0.88
2023-01-25T10:59:20.357Z,0.88
2023-01-25T11:01:46.734Z,1.01
2023-01-25T11:04:35.122Z,0.90
2023-01-25T11:07:05.658Z,0.87
2023-01-25T11:09:34.175Z,0.82
2023-01-25T11:12:03.351Z,0.86
2023-01-25T11:14:32.511Z,1.11
2023-01-25T11:17:03.415Z,1.00
2023-01-25T11:19:34.340Z,0.90
2023-01-25T11:22:20.222Z,0.79
2023-01-25T11:24:46.639Z,0.84
2023-01-25T11:27:12.938Z,0.77
2023-01-25T11:29:39.664Z,0.89
2023-01-25T11:32:20.190Z,0.94
2023-01-25T11:34:46.583Z,0.90
2023-01-25T11:37:30.787Z,0.99
2023-01-25T11:40:21.429Z,0.79
2023-01-25T11:43:06.850Z,0.85
2023-01-25T11:46:04.157Z,0.84
2023-01-25T11:48:57.225Z,0.94
2023-01-25T11:51:40.937Z,1.09
2023-01-25T11:54:32.093Z,0.95
2023-01-25T11:57:36.027Z,0.86
2023-01-25T12:00:27.493Z,1.03
2023-01-25T12:03:12.434Z,0.95
2023-01-25T12:06:03.211Z,1.04
2023-01-25T12:08:35.434Z,0.90
2023-01-25T12:11:10.783Z,0.99
2023-01-25T12:13:58.438Z,1.17
2023-01-25T12:16:43.892Z,0.95
2023-01-25T12:19:39.034Z,1.09
2023-01-25T12:22:20.626Z,0.95
2023-01-25T12:25:08.856Z,1.01
2023-01-25T12:28:11.939Z,0.80
2023-01-25T12:31:07.268Z,0.87
2023-01-25T12:33:36.214Z,0.91
2023-01-25T12:36:15.947Z,0.88
2023-01-25T12:38:50.396Z,1.01
2023-01-25T12:41:51.807Z,1.02
2023-01-25T12:44:21.166Z,1.08
2023-01-25T12:46:56.619Z,1.14
2023-01-25T12:49:33.559Z,0.99
2023-01-25T12:52:05.375Z,0.95
2023-01-25T12:54:37.667Z,0.97
2023-01-25T12:57:41.841Z,0.78
2023-01-25T13:00:22.099Z,0.78
2023-01-25T13:03:12.131Z,0.81
2023-01-25T13:05:58.735Z,0.92
2023-01-25T13:08:49.904Z,0.85
2023-01-25T13:11:33.320Z,0.83
2023-01-25T13:14:18.265Z,0.85
2023-01-25T13:17:01.367Z,0.74
2023-01-25T13:19:31.214Z,0.77
2023-01-25T13:21:59.499Z,0.72
2023-01-25T13:24:33.746Z,0.71
2023-01-25T13:27:21.945Z,0.79
2023-01-25T13:29:55.602Z,0.87
2023-01-25T13:32:24.728Z,0.86
2023-01-25T13:34:51.081Z,0.90
2023-01-25T13:37:30.472Z,0.94
2023-01-25T13:40:07.780Z,0.97
2023-01-25T13:42:37.135Z,0.97
2023-01-25T13:45:15.728Z,0.97
2023-01-25T13:47:43.570Z,0.97
2023-01-25T13:50:26.807Z,0.83
2023-01-25T13:53:05.729Z,0.83
2023-01-25T13:55:40.764Z,0.90
2023-01-25T13:58:30.962Z,0.67
2023-01-25T14:00:58.806Z,0.79
2023-01-25T14:03:30.783Z,0.72
2023-01-25T14:05:59.292Z,0.79
2023-01-25T14:08:26.673Z,0.73
2023-01-25T14:10:54.372Z,0.91
2023-01-25T14:13:20.966Z,0.83
2023-01-25T14:15:58.431Z,0.76
2023-01-25T14:18:32.617Z,0.77
2023-01-25T14:21:19.429Z,0.74
2023-01-25T14:23:46.740Z,0.75
2023-01-25T14:26:20.439Z,0.86
2023-01-25T14:29:01.940Z,0.89
2023-01-25T14:31:34.832Z,0.95
2023-01-25T14:34:04.600Z,0.92
2023-01-25T14:36:34.073Z,0.99
2023-01-25T14:39:00.999Z,0.95
2023-01-25T14:41:35.807Z,0.89
2023-01-25T14:44:12.075Z,0.91
2023-01-25T14:46:39.870Z,0.88
2023-01-25T14:49:15.207Z,0.72
2023-01-25T14:51:46.721Z,0.75
2023-01-25T14:54:17.773Z,0.75
2023-01-25T14:56:50.151Z,0.67
2023-01-25T14:59:39.629Z,0.61
2023-01-25T15:02:23.249Z,0.55
2023-01-25T15:05:02.795Z,0.53
2023-01-25T15:07:42.334Z,0.73
2023-01-25T15:10:16.455Z,0.67
2023-01-25T15:12:58.499Z,0.64
2023-01-25T15:15:33.607Z,0.52
2023-01-25T15:18:00.455Z,0.65
2023-01-25T15:20:28.192Z,0.74
2023-01-25T15:22:57.035Z,0.69
2023-01-25T15:25:24.485Z,0.80
2023-01-25T15:27:51.085Z,0.82
2023-01-25T15:30:18.790Z,0.84
2023-01-25T15:32:46.143Z,0.88
2023-01-25T15:35:14.783Z,0.83
2023-01-25T15:37:41.763Z,0.94
2023-01-25T15:40:10.551Z,0.84
2023-01-25T15:42:37.080Z,0.66
2023-01-25T15:45:05.187Z,0.57
2023-01-25T15:47:33.313Z,0.71
2023-01-25T15:49:59.634Z,0.61
2023-01-25T15:52:25.979Z,0.55
2023-01-25T15:55:01.338Z,0.57
2023-01-25T15:57:32.271Z,0.51
2023-01-25T16:00:00.623Z,0.40
2023-01-25T16:02:31.128Z,0.58
2023-01-25T16:04:57.479Z,0.54
2023-01-25T16:07:27.017Z,0.45
2023-01-25T16:09:53.380Z,0.48
2023-01-25T16:12:22.105Z,0.47
2023-01-25T16:14:48.820Z,0.36
2023-01-25T16:17:20.711Z,0.40
2023-01-25T16:19:47.856Z,0.52
2023-01-25T16:22:15.184Z,0.54
2023-01-25T16:24:42.677Z,0.55
2023-01-25T16:27:18.230Z,0.40
2023-01-25T16:29:44.549Z,0.49
2023-01-25T16:32:12.293Z,0.49
2023-01-25T16:34:38.798Z,0.54
2023-01-25T16:37:05.313Z,0.51
2023-01-25T16:39:32.182Z,0.40
2023-01-25T16:41:58.646Z,0.63
2023-01-25T16:44:25.072Z,0.53
2023-01-25T16:46:51.424Z,0.39
2023-01-25T16:49:26.321Z,0.50
2023-01-25T16:51:56.516Z,0.42
2023-01-25T16:54:23.698Z,0.47
2023-01-25T16:56:50.963Z,0.49
2023-01-25T16:59:18.137Z,0.52
2023-01-25T17:01:44.722Z,0.44
2023-01-25T17:04:11.483Z,0.50
2023-01-25T17:06:44.078Z,0.60
2023-01-25T17:09:22.943Z,0.43
2023-01-25T17:11:50.363Z,0.27
2023-01-25T17:14:18.883Z,0.24
2023-01-25T17:16:47.811Z,0.43
2023-01-25T17:19:15.884Z,0.34
2023-01-25T17:21:42.367Z,0.44
2023-01-25T17:24:11.463Z,0.55
2023-01-25T17:26:37.853Z,0.53
2023-01-25T17:29:04.197Z,0.51
2023-01-25T17:31:33.976Z,0.61
2023-01-25T17:34:03.047Z,0.66
2023-01-25T17:36:29.658Z,0.60
2023-01-25T17:38:55.992Z,0.71
2023-01-25T17:41:22.323Z,0.61
2023-01-25T17:43:52.915Z,0.58
2023-01-25T17:46:25.907Z,0.36
2023-01-25T17:48:52.992Z,0.39
2023-01-25T17:51:19.953Z,0.55
2023-01-25T17:53:46.936Z,0.53
2023-01-25T17:56:13.502Z,0.34
2023-01-25T17:58:41.272Z,0.47
2023-01-25T18:01:17.389Z,0.45
2023-01-25T18:03:45.129Z,0.40
2023-01-25T18:06:13.912Z,0.31
2023-01-25T18:08:42.211Z,0.34
2023-01-25T18:11:10.458Z,0.23
2023-01-25T18:13:41.200Z,0.57
2023-01-25T18:16:09.543Z,0.65
2023-01-25T18:18:40.542Z,0.61
2023-01-25T18:21:14.121Z,0.51
2023-01-25T18:23:43.028Z,0.39
2023-01-25T18:26:19.197Z,0.44
2023-01-25T18:28:46.006Z,0.30
2023-01-25T18:31:13.058Z,0.37
2023-01-25T18:33:39.502Z,0.17
2023-01-25T18:36:06.138Z,0.19
2023-01-25T18:38:32.779Z,0.25
2023-01-25T18:40:59.509Z,0.24
2023-01-25T18:43:27.225Z,0.26
2023-01-25T18:45:58.483Z,0.25
2023-01-25T18:48:32.311Z,0.16
2023-01-25T18:51:11.148Z,0.25
2023-01-25T18:53:39.037Z,0.22
2023-01-25T18:56:14.422Z,0.19
2023-01-25T18:58:41.552Z,0.26
2023-01-25T19:01:28.218Z,0.28
2023-01-25T19:03:54.538Z,0.29
2023-01-25T19:06:22.758Z,0.31
2023-01-25T19:08:54.196Z,0.40
2023-01-25T19:11:21.451Z,0.41
2023-01-25T19:13:48.586Z,0.50
2023-01-25T19:16:20.552Z,0.61
2023-01-25T19:18:52.743Z,0.57
2023-01-25T19:21:24.800Z,0.32
2023-01-25T19:23:52.785Z,0.55
2023-01-25T19:26:20.844Z,0.53
2023-01-25T19:28:47.983Z,0.44
2023-01-25T19:31:17.099Z,0.44
2023-01-25T19:33:45.131Z,0.41
2023-01-25T19:36:16.481Z,0.40
2023-01-25T19:38:43.209Z,0.41
2023-01-25T19:41:12.852Z,0.37
2023-01-25T19:43:41.365Z,0.23
2023-01-25T19:46:09.801Z,0.34
2023-01-25T19:48:36.858Z,0.22
2023-01-25T19:51:21.490Z,0.28
2023-01-25T19:54:00.174Z,0.37
2023-01-25T19:56:28.406Z,0.44
2023-01-25T19:58:54.724Z,0.37
2023-01-25T20:01:29.169Z,0.40
2023-01-25T20:03:57.865Z,0.24
2023-01-25T20:06:25.723Z,0.27
2023-01-25T20:08:53.024Z,0.35
2023-01-25T20:11:24.489Z,0.45
2023-01-25T20:13:52.363Z,0.29
2023-01-25T20:16:19.615Z,0.09
2023-01-25T20:18:47.292Z,0.20
2023-01-25T20:21:16.331Z,0.21
2023-01-25T20:23:44.826Z,0.07
2023-01-25T20:26:19.208Z,0.02
2023-01-25T20:28:47.933Z,0.10
2023-01-25T20:31:25.630Z,0.07
2023-01-25T20:33:54.570Z,0.07
2023-01-25T20:36:21.026Z,0.18
2023-01-25T20:38:47.707Z,0.14
2023-01-25T20:41:15.601Z,0.11
2023-01-25T20:43:53.312Z,0.06
2023-01-25T20:46:21.487Z,-0.02
2023-01-25T20:48:48.431Z,0.03
2023-01-25T20:51:16.900Z,0.14
2023-01-25T20:53:45.129Z,0.06
2023-01-25T20:56:13.006Z,0.13
2023-01-25T20:58:39.497Z,0.14
2023-01-25T21:01:20.122Z,0.33
2023-01-25T21:03:47.402Z,0.26
2023-01-25T21:06:14.224Z,0.39
2023-01-25T21:08:40.577Z,0.38
2023-01-25T21:11:07.833Z,0.15
2023-01-25T21:13:34.295Z,0.22
2023-01-25T21:16:10.229Z,0.26
2023-01-25T21:18:41.401Z,0.19
2023-01-25T21:21:16.476Z,0.26
2023-01-25T21:23:44.890Z,0.36
2023-01-25T21:26:20.584Z,0.13
2023-01-25T21:28:47.811Z,0.05
2023-01-25T21:31:20.229Z,0.16
2023-01-25T21:33:47.334Z,0.26
2023-01-25T21:36:18.397Z,0.10
2023-01-25T21:38:49.352Z,0.12
2023-01-25T21:41:22.176Z,0.20
2023-01-25T21:44:07.954Z,0.35
2023-01-25T21:46:34.769Z,0.32
2023-01-25T21:49:22.539Z,0.24
2023-01-25T21:51:51.066Z,0.34
2023-01-25T21:54:24.688Z,0.25
2023-01-25T21:56:53.105Z,0.35
2023-01-25T21:59:20.183Z,0.33
2023-01-25T22:01:47.016Z,0.26
2023-01-25T22:04:14.930Z,0.19
2023-01-25T22:06:41.710Z,0.26
2023-01-25T22:09:08.859Z,0.47
2023-01-25T22:11:35.690Z,0.40
2023-01-25T22:14:02.320Z,0.36
2023-01-25T22:16:31.304Z,0.20
2023-01-25T22:18:59.852Z,0.24
2023-01-25T22:21:30.553Z,0.13
2023-01-25T22:23:58.168Z,0.23
2023-01-25T22:26:26.996Z,0.15
2023-01-25T22:28:58.639Z,0.29
2023-01-25T22:31:30.455Z,0.39
2023-01-25T22:33:59.027Z,0.38
2023-01-25T22:36:27.923Z,0.48
2023-01-25T22:38:54.603Z,0.39
2023-01-25T22:41:24.387Z,0.45
2023-01-25T22:43:50.851Z,0.45
2023-01-25T22:46:19.519Z,0.20
2023-01-25T22:48:47.003Z,0.29
2023-01-25T22:51:19.063Z,0.20
2023-01-25T22:53:45.954Z,0.16
2023-01-25T22:56:15.042Z,0.21
2023-01-25T22:58:42.966Z,0.34
2023-01-25T23:01:11.369Z,0.23
2023-01-25T23:03:38.272Z,0.18
2023-01-25T23:06:07.606Z,0.24
2023-01-25T23:08:36.336Z,0.28
2023-01-25T23:11:24.694Z,0.11
2023-01-25T23:14:11.084Z,0.02
2023-01-25T23:16:37.459Z,0.05
2023-01-25T23:19:05.260Z,0.07
2023-01-25T23:21:32.272Z,0.01
2023-01-25T23:24:03.213Z,0.02
2023-01-25T23:26:37.266Z,0.07
2023-01-25T23:29:06.359Z,0.13
2023-01-25T23:31:32.847Z,0.17
2023-01-25T23:34:01.776Z,0.18
2023-01-25T23:36:36.021Z,0.16
2023-01-25T23:39:02.960Z,0.10
2023-01-25T23:41:30.644Z,-0.04
2023-01-25T23:43:57.656Z,-0.12
2023-01-25T23:46:24.851Z,-0.16
2023-01-25T23:48:51.330Z,-0.10
2023-01-25T23:51:18.199Z,-0.11
2023-01-25T23:53:44.735Z,-0.04
2023-01-25T23:56:20.613Z,-0.18
2023-01-25T23:58:48.077Z,-0.19
